Time;durP1;ratioP1;P1;durP2;ratioP2;P2;SDS_P1;SDS_P2;PMS_P1;PMS_P2;Temp;Humidity;BMP_temperature;BMP_pressure;BME280_temperature;BME280_humidity;BME280_pressure;Samples;Min_cycle;Max_cycle;Signal;HPM_P1;HPM_P2
2023/05/12 00:01:44;;;;;;;18.73;11.10;;;;;;;12.05;100.00;101450.44;5121523;27;20051;-73
2023/05/12 00:04:11;;;;;;;17.17;10.73;;;;;;;12.01;100.00;101450.53;5129745;27;20052;-74
2023/05/12 00:06:38;;;;;;;18.55;11.15;;;;;;;11.96;100.00;101450.63;5111206;27;20042;-72
2023/05/12 00:09:05;;;;;;;16.20;11.02;;;;;;;11.94;100.00;101444.53;5116430;27;20032;-72
2023/05/12 00:11:32;;;;;;;18.35;11.30;;;;;;;11.91;100.00;101445.44;5123057;27;20469;-71
2023/05/12 00:13:59;;;;;;;18.38;11.07;;;;;;;11.93;100.00;101448.06;5112689;27;20032;-72
2023/05/12 00:16:26;;;;;;;21.83;11.63;;;;;;;11.94;100.00;101439.25;5120580;27;20098;-71
2023/05/12 00:18:53;;;;;;;18.85;12.32;;;;;;;11.94;100.00;101436.59;5123317;27;20044;-71
2023/05/12 00:21:20;;;;;;;17.30;11.00;;;;;;;11.93;100.00;101442.78;5113302;27;20045;-72
2023/05/12 00:23:47;;;;;;;18.95;11.27;;;;;;;11.91;100.00;101442.81;5115837;27;20040;-73
2023/05/12 00:26:16;;;;;;;19.17;11.63;;;;;;;11.88;100.00;101442.03;5118988;27;20040;-73
2023/05/12 00:28:46;;;;;;;18.83;11.68;;;;;;;11.85;100.00;101435.06;5125892;27;20035;-72
2023/05/12 00:31:13;;;;;;;18.13;11.40;;;;;;;11.81;100.00;101438.66;5091748;27;20465;-73
2023/05/12 00:33:41;;;;;;;18.92;11.85;;;;;;;11.79;100.00;101433.44;5124617;27;20036;-74
2023/05/12 00:36:08;;;;;;;15.90;11.15;;;;;;;11.73;100.00;101428.31;5112920;27;20047;-71
2023/05/12 00:38:36;;;;;;;18.05;11.13;;;;;;;11.74;100.00;101432.69;5110164;27;20044;-72
2023/05/12 00:41:03;;;;;;;18.48;10.88;;;;;;;11.68;100.00;101432.00;5113026;27;20036;-72
2023/05/12 00:43:30;;;;;;;18.30;11.55;;;;;;;11.65;100.00;101428.50;5111004;27;20627;-72
2023/05/12 00:45:59;;;;;;;18.35;11.68;;;;;;;11.63;100.00;101437.38;5117308;27;20067;-72
2023/05/12 00:48:27;;;;;;;20.60;11.88;;;;;;;11.61;100.00;101423.34;5127868;27;20043;-73
2023/05/12 00:50:55;;;;;;;18.85;11.30;;;;;;;11.59;100.00;101430.44;5116703;27;20040;-74
2023/05/12 00:53:23;;;;;;;19.65;11.15;;;;;;;11.56;100.00;101420.81;5122911;27;20035;-74
2023/05/12 00:55:52;;;;;;;17.05;11.18;;;;;;;11.57;100.00;101421.69;5102824;27;20546;-74
2023/05/12 00:58:19;;;;;;;18.67;12.18;;;;;;;11.50;100.00;101432.41;5111233;27;22596;-73
2023/05/12 01:00:46;;;;;;;18.75;12.27;;;;;;;11.53;100.00;101422.69;5117475;27;20096;-72
2023/05/12 01:03:13;;;;;;;19.33;12.40;;;;;;;11.52;100.00;101424.44;5139561;27;20079;-73
2023/05/12 01:06:02;;;;;;;15.15;10.88;;;;;;;11.57;100.00;101419.03;5121163;27;20040;-72
2023/05/12 01:08:31;;;;;;;16.15;10.70;;;;;;;11.54;100.00;101417.34;5109812;27;20040;-72
2023/05/12 01:10:59;;;;;;;15.35;9.95;;;;;;;11.49;100.00;101409.53;5115211;27;20043;-73
2023/05/12 01:13:26;;;;;;;15.50;9.65;;;;;;;11.46;100.00;101403.47;5120488;27;20046;-72
2023/05/12 01:15:57;;;;;;;18.33;10.00;;;;;;;11.46;100.00;101403.47;5133106;27;20040;-73
2023/05/12 01:18:27;;;;;;;15.45;9.07;;;;;;;11.47;100.00;101397.31;5123572;27;20126;-73
2023/05/12 01:20:56;;;;;;;14.70;9.13;;;;;;;11.47;100.00;101406.06;5129867;27;20051;-73
2023/05/12 01:23:34;;;;;;;12.43;8.18;;;;;;;11.44;100.00;101400.88;5115043;27;20040;-73
2023/05/12 01:26:06;;;;;;;12.40;7.28;;;;;;;11.38;100.00;101395.75;5108436;27;20633;-73
2023/05/12 01:28:36;;;;;;;14.20;7.95;;;;;;;11.30;100.00;101395.06;5118090;27;20070;-73
2023/05/12 01:31:07;;;;;;;13.20;7.57;;;;;;;11.30;100.00;101393.28;5109064;27;20519;-73
2023/05/12 01:33:37;;;;;;;12.82;8.02;;;;;;;11.25;100.00;101391.66;5108706;27;20501;-72
2023/05/12 01:36:04;;;;;;;16.42;9.05;;;;;;;11.23;100.00;101396.13;5130264;27;20847;-72
2023/05/12 01:38:32;;;;;;;14.43;8.15;;;;;;;11.24;100.00;101389.94;5128611;27;20050;-71
2023/05/12 01:40:59;;;;;;;16.77;9.20;;;;;;;11.23;100.00;101391.72;5124489;27;20040;-71
2023/05/12 01:43:26;;;;;;;13.35;8.10;;;;;;;11.24;100.00;101387.31;5107454;27;20043;-71
2023/05/12 01:45:53;;;;;;;13.88;7.90;;;;;;;11.24;100.00;101388.16;5108311;28;20119;-71
2023/05/12 01:48:20;;;;;;;11.10;6.82;;;;;;;11.24;100.00;101384.69;5121609;27;20478;-72
2023/05/12 01:50:48;;;;;;;12.02;7.22;;;;;;;11.19;100.00;101390.06;5138254;27;20031;-72
2023/05/12 01:53:19;;;;;;;13.48;7.97;;;;;;;11.16;100.00;101382.22;5144816;27;20046;-71
2023/05/12 01:55:46;;;;;;;14.77;7.85;;;;;;;11.14;100.00;101379.59;5107508;27;20532;-71
2023/05/12 01:58:13;;;;;;;14.95;7.97;;;;;;;11.16;100.00;101390.13;5109395;27;20137;-71
2023/05/12 02:00:40;;;;;;;11.80;7.13;;;;;;;11.16;100.00;101379.56;5142244;27;20081;-71
2023/05/12 02:03:14;;;;;;;13.85;7.03;;;;;;;11.18;100.00;101385.69;5113126;27;20165;-71
2023/05/12 02:05:41;;;;;;;10.85;6.60;;;;;;;11.18;100.00;101378.63;5117741;27;20130;-72
2023/05/12 02:08:08;;;;;;;12.35;7.22;;;;;;;11.14;100.00;101386.66;5136491;27;20036;-71
2023/05/12 02:10:35;;;;;;;11.48;6.13;;;;;;;11.14;100.00;101382.22;5125321;27;20229;-71
2023/05/12 02:13:03;;;;;;;10.60;6.35;;;;;;;11.14;100.00;101386.66;5132455;27;20582;-71
2023/05/12 02:15:31;;;;;;;9.80;5.88;;;;;;;11.15;100.00;101381.34;5106632;27;20093;-71
2023/05/12 02:17:58;;;;;;;10.18;6.38;;;;;;;11.14;100.00;101382.22;5111795;27;20040;-71
2023/05/12 02:20:28;;;;;;;11.10;6.80;;;;;;;11.15;100.00;101378.69;5131714;27;20044;-72
2023/05/12 02:22:55;;;;;;;12.63;6.80;;;;;;;11.15;100.00;101370.78;5125999;27;20090;-71
2023/05/12 02:25:22;;;;;;;12.63;6.53;;;;;;;11.13;100.00;101367.34;5128281;27;20036;-71
2023/05/12 02:27:49;;;;;;;15.45;7.85;;;;;;;11.14;100.00;101370.81;5119754;27;20901;-71
2023/05/12 02:30:17;;;;;;;19.83;8.55;;;;;;;11.15;100.00;101368.13;5147872;27;20668;-71
2023/05/12 02:32:45;;;;;;;17.45;8.32;;;;;;;11.19;100.00;101353.97;5144565;27;20035;-71
2023/05/12 02:35:12;;;;;;;22.25;10.13;;;;;;;11.18;100.00;101361.94;5125233;27;20046;-71
2023/05/12 02:37:39;;;;;;;22.35;10.52;;;;;;;11.20;100.00;101346.91;5109025;27;20055;-72
2023/05/12 02:40:07;;;;;;;24.50;11.52;;;;;;;11.22;100.00;101352.16;5125732;27;20043;-72
2023/05/12 02:42:37;;;;;;;24.90;11.27;;;;;;;11.24;100.00;101355.66;5125302;27;20040;-72
2023/05/12 02:45:05;;;;;;;27.70;12.02;;;;;;;11.27;100.00;101352.91;5119810;27;20040;-72
2023/05/12 02:47:32;;;;;;;24.90;12.32;;;;;;;11.30;100.00;101340.50;5121554;27;20034;-71
2023/05/12 02:50:00;;;;;;;25.35;12.07;;;;;;;11.32;100.00;101332.56;5124953;27;20525;-72
2023/05/12 02:52:27;;;;;;;29.83;12.82;;;;;;;11.36;100.00;101350.03;5118911;27;20042;-72
2023/05/12 02:54:55;;;;;;;32.10;14.55;;;;;;;11.32;100.00;101343.13;5099530;28;20054;-72
2023/05/12 02:57:22;;;;;;;33.22;15.18;;;;;;;11.32;100.00;101343.97;5107936;27;20070;-71
2023/05/12 02:59:49;;;;;;;31.10;14.60;;;;;;;11.36;100.00;101342.13;5144029;27;20044;-73
2023/05/12 03:02:16;;;;;;;26.60;13.15;;;;;;;11.37;100.00;101343.84;5120590;27;20228;-72
2023/05/12 03:04:43;;;;;;;33.67;15.05;;;;;;;11.36;100.00;101342.13;5117066;27;20071;-72
2023/05/12 03:07:10;;;;;;;36.50;15.70;;;;;;;11.35;100.00;101343.00;5121182;27;20463;-74
2023/05/12 03:09:37;;;;;;;44.55;17.65;;;;;;;11.36;100.00;101346.53;5122733;27;20036;-74
2023/05/12 03:12:05;;;;;;;38.67;16.45;;;;;;;11.41;100.00;101336.72;5107118;27;20516;-74
2023/05/12 03:14:32;;;;;;;50.05;18.05;;;;;;;11.40;100.00;101334.97;5105875;27;20121;-72
2023/05/12 03:16:59;;;;;;;43.70;17.15;;;;;;;11.43;100.00;101341.06;5111104;27;20039;-71
2023/05/12 03:19:26;;;;;;;53.38;18.63;;;;;;;11.42;100.00;101330.53;5109649;27;20267;-72
2023/05/12 03:21:54;;;;;;;46.55;17.50;;;;;;;11.51;100.00;101332.94;5118305;27;20801;-71
2023/05/12 03:24:21;;;;;;;40.95;17.58;;;;;;;11.49;100.00;101330.34;5113677;27;20036;-72
2023/05/12 03:26:48;;;;;;;53.03;19.02;;;;;;;11.51;100.00;101330.28;5118449;27;20114;-73
2023/05/12 03:29:15;;;;;;;48.47;19.73;;;;;;;11.54;100.00;101329.38;5106261;27;20040;-71
2023/05/12 03:31:42;;;;;;;59.00;19.58;;;;;;;11.51;100.00;101322.38;5124447;27;20042;-71
2023/05/12 03:34:10;;;;;;;56.80;20.65;;;;;;;11.57;100.00;101324.88;5121917;27;20047;-71
2023/05/12 03:36:37;;;;;;;53.88;19.83;;;;;;;11.59;100.00;101335.38;5128404;27;20038;-71
2023/05/12 03:39:04;;;;;;;60.65;21.25;;;;;;;11.61;100.00;101334.41;5128124;27;20036;-71
2023/05/12 03:41:32;;;;;;;50.13;19.95;;;;;;;11.67;100.00;101333.38;5127610;27;20044;-72
2023/05/12 03:43:59;;;;;;;49.67;17.77;;;;;;;11.70;100.00;101327.19;5126094;27;20040;-72
2023/05/12 03:46:26;;;;;;;55.47;21.73;;;;;;;11.71;100.00;101324.50;5140092;27;20036;-72
2023/05/12 03:48:54;;;;;;;53.53;20.88;;;;;;;11.71;100.00;101321.84;5111845;27;20036;-72
2023/05/12 03:51:21;;;;;;;54.75;20.10;;;;;;;11.77;100.00;101326.94;5131384;27;20044;-71
2023/05/12 03:53:51;;;;;;;54.80;20.92;;;;;;;11.79;100.00;101333.06;5120879;27;20039;-71
2023/05/12 03:56:19;;;;;;;54.00;21.23;;;;;;;11.83;100.00;101330.34;5141342;27;20768;-73
2023/05/12 03:58:46;;;;;;;61.13;22.25;;;;;;;11.83;100.00;101325.06;5130723;27;20036;-71
2023/05/12 04:01:15;;;;;;;56.00;22.20;;;;;;;11.87;100.00;101329.31;5124732;27;20035;-71
2023/05/12 04:03:42;;;;;;;61.35;22.58;;;;;;;11.93;100.00;101329.19;5132451;27;20051;-71
2023/05/12 04:06:09;;;;;;;65.40;23.88;;;;;;;11.98;100.00;101334.38;5117347;27;20040;-71
2023/05/12 04:08:36;;;;;;;55.50;23.30;;;;;;;12.00;100.00;101329.91;5139847;27;20036;-71
2023/05/12 04:11:08;;;;;;;58.30;23.10;;;;;;;11.99;100.00;101328.16;5127894;27;20150;-71
2023/05/12 04:13:35;;;;;;;54.42;22.85;;;;;;;12.01;100.00;101328.97;5112510;27;20033;-71
2023/05/12 04:16:02;;;;;;;60.15;23.73;;;;;;;12.02;100.00;101331.59;5126626;27;20036;-71
2023/05/12 04:18:29;;;;;;;56.03;22.75;;;;;;;12.05;100.00;101331.50;5119520;27;20503;-71
2023/05/12 04:20:56;;;;;;;61.92;22.70;;;;;;;12.07;100.00;101331.47;5118047;27;20930;-70
2023/05/12 04:23:24;;;;;;;60.47;22.63;;;;;;;12.12;100.00;101334.81;5127783;27;20593;-70
2023/05/12 04:25:51;;;;;;;55.13;23.50;;;;;;;12.16;100.00;101341.75;5126332;27;20577;-70
2023/05/12 04:28:18;;;;;;;52.10;21.58;;;;;;;12.20;100.00;101335.47;5148200;27;20097;-71
2023/05/12 04:30:46;;;;;;;52.95;23.10;;;;;;;12.26;100.00;101340.59;5130053;27;20547;-71
2023/05/12 04:33:13;;;;;;;49.03;22.23;;;;;;;12.27;100.00;101339.66;5127513;27;20082;-71
2023/05/12 04:35:41;;;;;;;43.13;20.52;;;;;;;12.34;100.00;101336.84;5127454;27;20043;-71
2023/05/12 04:38:10;;;;;;;46.20;20.52;;;;;;;12.38;100.00;101344.63;5121322;27;20512;-71
2023/05/12 04:40:37;;;;;;;51.40;22.55;;;;;;;12.43;100.00;101341.84;5120566;27;20044;-71
2023/05/12 04:43:04;;;;;;;45.50;20.45;;;;;;;12.48;100.00;101342.59;5123742;27;20529;-71
2023/05/12 04:45:32;;;;;;;43.80;20.80;;;;;;;12.52;100.00;101340.72;5134012;27;20036;-71
2023/05/12 04:47:59;;;;;;;43.45;20.77;;;;;;;12.51;100.00;101347.78;5118701;27;20044;-73
2023/05/12 04:50:26;;;;;;;41.67;20.27;;;;;;;12.57;100.00;101357.28;5123392;27;20051;-70
2023/05/12 04:52:53;;;;;;;43.08;20.35;;;;;;;12.60;100.00;101364.28;5122513;27;20036;-70
2023/05/12 04:55:20;;;;;;;49.65;22.67;;;;;;;12.67;100.00;101363.19;5127746;27;20502;-70
2023/05/12 04:57:48;;;;;;;44.60;21.15;;;;;;;12.72;100.00;101370.06;5131376;27;20553;-71
2023/05/12 05:00:15;;;;;;;41.33;21.25;;;;;;;12.81;100.00;101370.69;5131815;27;20040;-69
2023/05/12 05:02:44;;;;;;;45.17;22.60;;;;;;;12.85;100.00;101373.19;5129991;27;20075;-70
2023/05/12 05:05:11;;;;;;;41.85;21.33;;;;;;;12.88;100.00;101381.03;5130376;27;20048;-70
2023/05/12 05:07:39;;;;;;;41.90;20.50;;;;;;;12.89;100.00;101379.25;5128761;27;20031;-70
2023/05/12 05:10:06;;;;;;;38.38;19.85;;;;;;;12.94;100.00;101387.03;5140795;27;20044;-70
2023/05/12 05:12:33;;;;;;;28.95;16.38;;;;;;;13.03;100.00;101397.31;5138132;27;20089;-70
2023/05/12 05:15:00;;;;;;;33.95;18.15;;;;;;;13.01;100.00;101391.25;5129019;27;20038;-70
2023/05/12 05:17:28;;;;;;;32.42;18.05;;;;;;;13.04;100.00;101394.66;5119813;27;20035;-70
2023/05/12 05:19:55;;;;;;;30.90;17.88;;;;;;;13.10;100.00;101403.28;5125670;27;20040;-70
2023/05/12 05:22:28;;;;;;;29.30;15.95;;;;;;;13.18;100.00;101402.16;5136159;27;20498;-70
2023/05/12 05:24:55;;;;;;;27.92;16.88;;;;;;;13.25;100.00;101408.13;5120926;27;20072;-71
2023/05/12 05:27:22;;;;;;;28.67;16.85;;;;;;;13.26;100.00;101412.50;5094922;27;20036;-70
2023/05/12 05:29:50;;;;;;;30.17;18.00;;;;;;;13.29;100.00;101420.31;5136386;27;20047;-71
2023/05/12 05:32:17;;;;;;;33.03;18.48;;;;;;;13.29;100.00;101416.81;5110956;27;20047;-70
2023/05/12 05:34:44;;;;;;;38.20;20.08;;;;;;;13.31;100.00;101426.44;5135106;27;20048;-70
2023/05/12 05:37:11;;;;;;;34.28;19.88;;;;;;;13.35;100.00;101429.84;5126038;27;20596;-70
2023/05/12 05:39:39;;;;;;;35.75;20.25;;;;;;;13.40;100.00;101421.78;5123562;27;20036;-70
2023/05/12 05:42:06;;;;;;;34.45;19.75;;;;;;;13.46;100.00;101424.25;5127567;27;20039;-70
2023/05/12 05:44:34;;;;;;;32.35;19.38;;;;;;;13.49;100.00;101434.72;5126068;27;20047;-70
2023/05/12 05:47:03;;;;;;;32.08;19.38;;;;;;;13.52;100.00;101434.63;5108874;27;20035;-70
2023/05/12 05:49:31;;;;;;;35.40;20.38;;;;;;;13.51;100.00;101441.72;5143504;27;20538;-70
2023/05/12 05:51:59;;;;;;;34.47;20.20;;;;;;;13.56;100.00;101438.91;5126629;27;20116;-70
2023/05/12 05:54:27;;;;;;;32.08;18.95;;;;;;;13.60;100.00;101443.19;5104841;27;20039;-70
2023/05/12 05:56:54;;;;;;;34.63;19.60;;;;;;;13.65;100.00;101449.22;5128967;27;20040;-70
2023/05/12 05:59:23;;;;;;;33.85;20.00;;;;;;;13.69;100.00;101446.44;5124178;27;20040;-70
2023/05/12 06:01:50;;;;;;;31.38;19.30;;;;;;;13.73;100.00;101458.66;5122912;27;20594;-70
2023/05/12 06:04:17;;;;;;;30.70;18.38;;;;;;;13.77;100.00;101465.59;5115565;27;20120;-70
2023/05/12 06:06:45;;;;;;;30.90;19.38;;;;;;;13.79;100.00;101467.28;5128416;27;20051;-70
2023/05/12 06:09:14;;;;;;;29.02;18.60;;;;;;;13.82;100.00;101469.84;5127653;27;20046;-70
2023/05/12 06:11:41;;;;;;;27.05;16.40;;;;;;;13.87;100.00;101476.75;5129244;27;20031;-69
2023/05/12 06:14:08;;;;;;;30.50;16.77;;;;;;;13.91;100.00;101473.94;5099775;27;20737;-70
2023/05/12 06:16:35;;;;;;;24.45;15.52;;;;;;;14.01;100.00;101473.63;5127454;27;20035;-69
2023/05/12 06:19:02;;;;;;;26.13;17.60;;;;;;;14.04;100.00;101479.69;5119704;27;20047;-69
2023/05/12 06:21:30;;;;;;;26.50;16.55;;;;;;;14.13;100.00;101486.44;5136496;27;20036;-69
2023/05/12 06:23:57;;;;;;;24.35;16.00;;;;;;;14.27;100.00;101491.25;5116588;27;20783;-70
2023/05/12 06:26:24;;;;;;;25.13;15.98;;;;;;;14.37;100.00;101491.81;5109529;27;20032;-69
2023/05/12 06:28:51;;;;;;;24.75;15.25;;;;;;;14.47;100.00;101506.47;5123267;27;20049;-70
2023/05/12 06:31:18;;;;;;;20.75;14.77;;;;;;;14.59;100.00;101510.47;5097975;27;20151;-69
2023/05/12 06:33:46;;;;;;;17.60;11.95;;;;;;;14.65;99.19;101509.38;5121313;27;20541;-70
2023/05/12 06:36:13;;;;;;;17.45;11.57;;;;;;;14.71;97.81;101511.81;5111054;27;20054;-70
2023/05/12 06:38:40;;;;;;;15.40;11.00;;;;;;;14.74;97.61;101514.38;5127654;27;20035;-70
2023/05/12 06:41:08;;;;;;;14.65;11.40;;;;;;;14.76;96.28;101512.53;5144172;27;20109;-70
2023/05/12 06:43:34;;;;;;;14.80;10.15;;;;;;;14.77;95.99;101516.03;5128048;27;20042;-70
2023/05/12 06:46:02;;;;;;;16.65;10.50;;;;;;;14.77;96.41;101522.22;5129155;27;20071;-70
2023/05/12 06:48:29;;;;;;;12.98;9.60;;;;;;;14.80;96.80;101527.44;5145410;27;20043;-70
2023/05/12 06:50:56;;;;;;;12.90;9.23;;;;;;;14.87;95.75;101526.28;5129401;27;20032;-70
2023/05/12 06:53:29;;;;;;;13.65;9.20;;;;;;;14.99;94.89;101526.75;5128711;27;20097;-70
2023/05/12 06:55:56;;;;;;;12.07;8.50;;;;;;;15.12;93.95;101527.97;5143997;27;20040;-70
2023/05/12 06:58:23;;;;;;;11.13;8.23;;;;;;;15.26;93.55;101530.09;5128754;27;20039;-70
2023/05/12 07:00:50;;;;;;;9.77;7.75;;;;;;;15.38;91.65;101526.13;5127136;27;20092;-70
2023/05/12 07:03:18;;;;;;;8.20;6.70;;;;;;;15.51;89.66;101538.00;5148793;27;20046;-70
2023/05/12 07:05:45;;;;;;;9.18;6.65;;;;;;;15.59;90.63;101526.19;5149365;27;20064;-71
2023/05/12 07:08:12;;;;;;;8.45;6.68;;;;;;;15.69;89.40;101531.03;5149100;27;20541;-71
2023/05/12 07:10:39;;;;;;;6.53;5.25;;;;;;;15.83;87.84;101533.13;5165659;27;20388;-70
2023/05/12 07:13:06;;;;;;;6.75;5.55;;;;;;;15.92;88.27;101533.75;5165864;27;20092;-70
2023/05/12 07:15:33;;;;;;;7.20;4.88;;;;;;;16.01;87.13;101535.13;5147885;27;20035;-70
2023/05/12 07:18:01;;;;;;;6.13;4.30;;;;;;;16.08;84.25;101532.16;5121715;27;20032;-71
2023/05/12 07:20:28;;;;;;;5.43;3.83;;;;;;;16.11;84.42;101533.81;5128274;27;20039;-71
2023/05/12 07:22:55;;;;;;;4.53;3.50;;;;;;;16.18;83.64;101531.75;5126702;27;20043;-70
2023/05/12 07:25:22;;;;;;;6.47;3.70;;;;;;;16.22;81.23;101538.69;5128763;27;20070;-70
2023/05/12 07:27:49;;;;;;;5.32;3.55;;;;;;;16.26;81.76;101538.47;5128443;27;20032;-70
2023/05/12 07:30:16;;;;;;;5.30;4.00;;;;;;;16.34;82.60;101545.25;5126573;27;20098;-70
2023/05/12 07:32:44;;;;;;;4.70;4.03;;;;;;;16.42;83.31;101548.44;5132942;27;20047;-69
2023/05/12 07:35:11;;;;;;;6.00;3.90;;;;;;;16.47;82.98;101549.13;5136572;27;20048;-70
2023/05/12 07:37:40;;;;;;;6.28;3.90;;;;;;;16.53;81.98;101545.31;5132274;27;20352;-70
2023/05/12 07:40:07;;;;;;;5.22;3.42;;;;;;;16.58;81.34;101544.16;5138943;27;20035;-70
2023/05/12 07:42:35;;;;;;;4.93;3.65;;;;;;;16.60;80.72;101546.78;5126032;27;20498;-70
2023/05/12 07:45:02;;;;;;;5.85;3.80;;;;;;;16.61;81.26;101551.16;5111563;27;20046;-70
2023/05/12 07:47:29;;;;;;;4.38;3.15;;;;;;;16.77;80.36;101548.69;5117755;27;20591;-70
2023/05/12 07:49:57;;;;;;;4.38;3.75;;;;;;;16.86;81.36;101556.25;5143786;27;20125;-70
2023/05/12 07:52:23;;;;;;;5.78;3.58;;;;;;;16.92;80.04;101547.97;5125296;27;20039;-70
2023/05/12 07:54:51;;;;;;;6.85;4.00;;;;;;;16.87;81.88;101555.31;5128284;27;20044;-70
2023/05/12 07:57:18;;;;;;;5.95;4.32;;;;;;;16.95;79.49;101556.78;5119703;27;20036;-71
2023/05/12 07:59:44;;;;;;;7.22;4.00;;;;;;;16.86;80.09;101558.91;5129927;27;20491;-70
2023/05/12 08:02:11;;;;;;;5.90;3.60;;;;;;;16.90;78.55;101568.47;5144533;27;20051;-70
2023/05/12 08:04:39;;;;;;;5.78;3.75;;;;;;;16.90;78.38;101567.63;5117815;27;20127;-71
2023/05/12 08:07:08;;;;;;;6.55;3.70;;;;;;;16.91;78.15;101567.53;5125076;27;20488;-70
2023/05/12 08:09:35;;;;;;;4.40;4.00;;;;;;;16.95;79.89;101560.31;5123924;27;21146;-71
2023/05/12 08:12:02;;;;;;;4.95;3.15;;;;;;;17.08;78.19;101565.97;5126206;27;20456;-70
2023/05/12 08:14:29;;;;;;;4.32;3.67;;;;;;;17.18;76.95;101577.91;5127875;27;20036;-71
2023/05/12 08:16:56;;;;;;;4.65;3.47;;;;;;;17.29;76.96;101577.41;5127897;27;20032;-71
2023/05/12 08:19:23;;;;;;;5.53;3.53;;;;;;;17.50;75.09;101574.66;5125687;27;20036;-71
2023/05/12 08:21:50;;;;;;;4.25;3.58;;;;;;;17.52;76.83;101578.97;5135037;27;20134;-71
2023/05/12 08:24:17;;;;;;;5.03;3.17;;;;;;;17.63;75.86;101585.59;5108190;27;20039;-71
2023/05/12 08:26:44;;;;;;;4.20;3.47;;;;;;;17.66;75.62;101585.44;5122764;27;20154;-71
2023/05/12 08:29:11;;;;;;;4.03;3.47;;;;;;;17.73;75.65;101586.88;5127793;27;20039;-71
2023/05/12 08:31:38;;;;;;;5.22;3.20;;;;;;;17.78;75.50;101587.53;5144272;27;20051;-71
2023/05/12 08:34:06;;;;;;;4.90;3.30;;;;;;;17.83;75.48;101589.97;5122611;27;20847;-71
2023/05/12 08:36:40;;;;;;;5.15;3.28;;;;;;;17.88;74.87;101593.25;5123320;27;20039;-71
2023/05/12 08:39:10;;;;;;;3.40;2.75;;;;;;;17.88;73.94;101595.06;5117614;27;20123;-71
2023/05/12 08:42:17;;;;;;;2.83;2.50;;;;;;;17.83;74.59;101592.63;5126436;27;20467;-71
2023/05/12 08:44:46;;;;;;;4.80;2.90;;;;;;;17.79;74.24;101596.38;5126268;27;20039;-71
2023/05/12 08:47:17;;;;;;;3.05;2.42;;;;;;;17.78;71.72;101599.97;5122402;27;20059;-71
2023/05/12 08:49:54;;;;;;;7.22;2.78;;;;;;;17.63;72.38;101606.91;5123044;27;20043;-71
2023/05/12 08:52:22;;;;;;;4.05;2.47;;;;;;;17.50;73.16;101606.66;5121294;27;20032;-71
2023/05/12 08:54:50;;;;;;;3.35;2.20;;;;;;;17.39;71.78;101608.00;5113792;27;20539;-71
2023/05/12 08:57:23;;;;;;;3.78;1.90;;;;;;;17.33;70.63;101610.09;5143531;27;20036;-71
2023/05/12 08:59:54;;;;;;;3.58;2.17;;;;;;;17.23;71.30;101615.84;5112992;27;20044;-70
2023/05/12 09:02:23;;;;;;;3.60;1.88;;;;;;;17.23;71.82;101612.34;5110551;27;20194;-70
2023/05/12 09:04:53;;;;;;;2.53;2.10;;;;;;;17.25;71.06;101617.59;5110529;27;20119;-70
2023/05/12 09:07:25;;;;;;;2.72;1.90;;;;;;;17.17;71.86;101617.94;5128583;27;20567;-70
2023/05/12 09:09:57;;;;;;;4.32;2.20;;;;;;;17.14;73.59;101615.44;5127648;27;20066;-74
2023/05/12 09:12:33;;;;;;;5.70;2.17;;;;;;;17.20;74.27;101617.81;5130368;27;20093;-70
2023/05/12 09:15:09;;;;;;;3.72;2.28;;;;;;;17.32;71.37;101616.34;5130740;27;20093;-70
2023/05/12 09:17:36;;;;;;;2.50;1.90;;;;;;;17.40;73.10;101606.19;5129357;27;20047;-70
2023/05/12 09:20:06;;;;;;;2.17;1.80;;;;;;;17.63;72.34;101615.78;5136151;27;20653;-70
2023/05/12 09:22:39;;;;;;;5.90;2.00;;;;;;;17.79;69.42;101618.59;5167219;27;20039;-71
2023/05/12 09:25:20;;;;;;;4.07;1.83;;;;;;;17.93;68.20;101617.03;5150309;27;20096;-70
2023/05/12 09:27:53;;;;;;;3.05;1.77;;;;;;;18.07;68.77;101617.25;5159781;27;20093;-70
2023/05/12 09:30:34;;;;;;;1.70;1.60;;;;;;;18.27;67.75;101621.59;5130382;27;20600;-70
2023/05/12 09:33:06;;;;;;;2.30;1.58;;;;;;;18.30;66.85;101621.44;5130636;27;20511;-70
2023/05/12 09:35:43;;;;;;;2.15;1.83;;;;;;;18.26;67.30;101616.34;5116880;27;20032;-70
2023/05/12 09:38:13;;;;;;;3.05;1.90;;;;;;;18.36;65.68;101625.59;5127604;27;20127;-70
2023/05/12 09:40:40;;;;;;;3.15;1.80;;;;;;;18.50;65.05;101627.56;5128215;27;20156;-70
2023/05/12 09:43:07;;;;;;;2.72;2.05;;;;;;;18.61;67.32;101632.38;5126775;27;20036;-71
2023/05/12 09:45:37;;;;;;;2.53;1.50;;;;;;;18.75;67.00;101629.81;5127443;27;20503;-71
2023/05/12 09:48:10;;;;;;;2.80;1.70;;;;;;;18.86;65.42;101623.06;5126715;27;20040;-69
2023/05/12 09:50:49;;;;;;;3.35;1.75;;;;;;;18.80;65.81;101634.06;5157162;27;20553;-70
2023/05/12 09:53:19;;;;;;;2.13;1.55;;;;;;;18.73;65.02;101634.38;5109831;27;20114;-70
2023/05/12 09:55:47;;;;;;;3.85;1.92;;;;;;;18.72;65.17;101632.66;5109900;27;20032;-70
2023/05/12 09:58:18;;;;;;;2.88;1.70;;;;;;;18.68;65.06;101636.44;5122532;27;20052;-70
2023/05/12 10:00:46;;;;;;;2.83;1.80;;;;;;;18.62;65.36;101634.94;5124465;27;20137;-70
2023/05/12 10:03:17;;;;;;;3.35;1.50;;;;;;;18.60;64.65;101634.16;5117780;27;20532;-71
2023/05/12 10:05:56;;;;;;;1.65;1.50;;;;;;;18.65;64.15;101633.06;5115251;27;20590;-71
2023/05/12 10:08:32;;;;;;;3.70;1.60;;;;;;;18.68;64.07;101636.44;5120895;27;20122;-70
2023/05/12 10:11:03;;;;;;;2.63;1.48;;;;;;;18.73;62.52;101634.38;5124369;27;20036;-70
2023/05/12 10:13:32;;;;;;;3.05;1.75;;;;;;;18.71;63.23;101641.63;5115177;27;20042;-69
2023/05/12 10:16:00;;;;;;;5.10;1.85;;;;;;;18.77;61.55;101643.97;5122241;27;20854;-70
2023/05/12 10:18:28;;;;;;;1.63;1.50;;;;;;;18.70;63.21;101642.56;5124288;27;20073;-70
2023/05/12 10:20:56;;;;;;;3.63;1.70;;;;;;;18.69;63.80;101643.50;5163399;27;20035;-70
2023/05/12 10:23:25;;;;;;;2.92;1.80;;;;;;;18.72;62.98;101650.50;5125761;27;20087;-71
2023/05/12 10:26:00;;;;;;;2.30;1.75;;;;;;;18.71;62.16;101643.41;5129100;27;20149;-70
2023/05/12 10:28:28;;;;;;;4.05;1.98;;;;;;;18.71;60.94;101648.75;5129516;27;20491;-70
2023/05/12 10:30:57;;;;;;;2.53;1.85;;;;;;;18.83;61.69;101642.78;5126570;27;20035;-70
2023/05/12 10:33:26;;;;;;;1.55;1.38;;;;;;;18.87;62.02;101648.81;5139426;27;20581;-70
2023/05/12 10:35:53;;;;;;;3.75;1.60;;;;;;;18.93;61.41;101653.84;5128351;27;20040;-70
2023/05/12 10:38:21;;;;;;;2.28;1.65;;;;;;;18.88;62.35;101646.06;5113480;27;20044;-70
2023/05/12 10:40:59;;;;;;;3.20;1.48;;;;;;;19.06;62.07;101651.44;5123379;27;20806;-70
2023/05/12 10:43:37;;;;;;;2.90;1.50;;;;;;;19.21;60.34;101650.59;5144130;27;20044;-70
2023/05/12 10:46:23;;;;;;;7.85;1.73;;;;;;;19.38;58.94;101651.50;5148006;27;20047;-70
2023/05/12 10:49:03;;;;;;;2.90;1.60;;;;;;;19.65;61.13;101643.72;5118562;27;20093;-70
2023/05/12 10:51:47;;;;;;;5.13;1.50;;;;;;;20.08;61.15;101645.81;5118043;27;20036;-70
2023/05/12 10:54:24;;;;;;;3.72;1.58;;;;;;;20.51;57.68;101642.44;5121664;27;20071;-70
2023/05/12 10:56:57;;;;;;;2.60;1.60;;;;;;;20.76;58.79;101635.59;5128181;27;20527;-71
2023/05/12 10:59:26;;;;;;;5.40;2.00;;;;;;;21.15;56.12;101635.94;5128011;27;21107;-70
2023/05/12 11:02:29;;;;;;;4.22;1.70;;;;;;;21.29;56.01;101632.38;5129635;27;20039;-71
2023/05/12 11:05:10;;;;;;;3.22;1.92;;;;;;;21.44;52.62;101643.94;5128543;27;20507;-70
2023/05/12 11:07:45;;;;;;;3.95;1.60;;;;;;;21.37;51.62;101636.31;5144668;27;20032;-71
2023/05/12 11:10:13;;;;;;;2.70;1.70;;;;;;;21.34;50.73;101639.16;5127213;27;20043;-70
2023/05/12 11:12:43;;;;;;;2.03;1.83;;;;;;;21.23;52.42;101638.97;5149716;27;20036;-70
2023/05/12 11:15:11;;;;;;;4.25;1.80;;;;;;;21.15;53.46;101635.94;5129043;27;20504;-71
2023/05/12 11:17:39;;;;;;;2.78;1.83;;;;;;;21.16;54.89;101645.69;5128179;27;20132;-71
2023/05/12 11:20:10;;;;;;;3.58;2.10;;;;;;;21.25;53.56;101645.13;5127245;27;20028;-71